sensor_id;sensor_type;location;lat;lon;timestamp;temperature;humidity
44671;DHT22;48397;53.016;-2.260;2023-04-03T00:01:24;3.80;99.90
44671;DHT22;48397;53.016;-2.260;2023-04-03T00:06:21;3.20;99.90
44671;DHT22;48397;53.016;-2.260;2023-04-03T00:08:49;3.20;99.90
44671;DHT22;48397;53.016;-2.260;2023-04-03T00:11:16;3.20;99.90
44671;DHT22;48397;53.016;-2.260;2023-04-03T00:13:44;3.20;99.90
44671;DHT22;48397;53.016;-2.260;2023-04-03T00:16:12;3.20;99.90
44671;DHT22;48397;53.016;-2.260;2023-04-03T00:18:40;3.40;99.90
44671;DHT22;48397;53.016;-2.260;2023-04-03T00:21:10;3.10;99.90
44671;DHT22;48397;53.016;-2.260;2023-04-03T00:23:39;3.20;99.90
44671;DHT22;48397;53.016;-2.260;2023-04-03T00:26:07;3.20;99.90
44671;DHT22;48397;53.016;-2.260;2023-04-03T00:28:36;3.20;99.90
44671;DHT22;48397;53.016;-2.260;2023-04-03T00:31:04;5.20;99.90
44671;DHT22;48397;53.016;-2.260;2023-04-03T00:33:33;3.10;99.90
44671;DHT22;48397;53.016;-2.260;2023-04-03T00:36:09;3.10;99.90
44671;DHT22;48397;53.016;-2.260;2023-04-03T00:38:39;3.10;99.90
44671;DHT22;48397;53.016;-2.260;2023-04-03T00:41:08;3.10;99.90
44671;DHT22;48397;53.016;-2.260;2023-04-03T00:43:36;3.10;99.90
44671;DHT22;48397;53.016;-2.260;2023-04-03T00:46:03;3.10;99.90
44671;DHT22;48397;53.016;-2.260;2023-04-03T00:48:33;3.00;99.90
44671;DHT22;48397;53.016;-2.260;2023-04-03T00:51:02;3.10;99.90
44671;DHT22;48397;53.016;-2.260;2023-04-03T00:53:56;4.30;99.90
44671;DHT22;48397;53.016;-2.260;2023-04-03T00:56:25;3.10;99.90
44671;DHT22;48397;53.016;-2.260;2023-04-03T00:58:59;3.10;99.90
44671;DHT22;48397;53.016;-2.260;2023-04-03T01:01:30;3.10;99.90
44671;DHT22;48397;53.016;-2.260;2023-04-03T01:04:00;3.00;99.90
44671;DHT22;48397;53.016;-2.260;2023-04-03T01:06:36;3.00;99.90
44671;DHT22;48397;53.016;-2.260;2023-04-03T01:09:07;2.90;99.90
44671;DHT22;48397;53.016;-2.260;2023-04-03T01:11:35;2.90;99.90
44671;DHT22;48397;53.016;-2.260;2023-04-03T01:14:04;2.80;99.90
44671;DHT22;48397;53.016;-2.260;2023-04-03T01:16:33;2.90;99.90
44671;DHT22;48397;53.016;-2.260;2023-04-03T01:19:03;2.90;99.90
44671;DHT22;48397;53.016;-2.260;2023-04-03T01:24:36;2.90;99.90
44671;DHT22;48397;53.016;-2.260;2023-04-03T01:27:09;2.90;99.90
44671;DHT22;48397;53.016;-2.260;2023-04-03T01:29:38;2.90;99.90
44671;DHT22;48397;53.016;-2.260;2023-04-03T01:32:07;5.50;99.90
44671;DHT22;48397;53.016;-2.260;2023-04-03T01:34:35;2.80;99.90
44671;DHT22;48397;53.016;-2.260;2023-04-03T01:37:03;2.80;99.90
44671;DHT22;48397;53.016;-2.260;2023-04-03T01:39:31;2.80;99.90
44671;DHT22;48397;53.016;-2.260;2023-04-03T01:41:59;2.60;99.90
44671;DHT22;48397;53.016;-2.260;2023-04-03T01:47:00;2.50;99.90
44671;DHT22;48397;53.016;-2.260;2023-04-03T01:51:57;2.50;99.90
44671;DHT22;48397;53.016;-2.260;2023-04-03T01:54:24;2.50;99.90
44671;DHT22;48397;53.016;-2.260;2023-04-03T01:56:53;2.40;99.90
44671;DHT22;48397;53.016;-2.260;2023-04-03T01:59:22;2.40;99.90
44671;DHT22;48397;53.016;-2.260;2023-04-03T02:01:50;2.30;99.90
44671;DHT22;48397;53.016;-2.260;2023-04-03T02:04:18;2.30;99.90
44671;DHT22;48397;53.016;-2.260;2023-04-03T02:06:46;2.50;99.90
44671;DHT22;48397;53.016;-2.260;2023-04-03T02:09:13;2.20;99.90
44671;DHT22;48397;53.016;-2.260;2023-04-03T02:11:41;2.90;99.90
44671;DHT22;48397;53.016;-2.260;2023-04-03T02:14:10;2.10;99.90
44671;DHT22;48397;53.016;-2.260;2023-04-03T02:16:38;2.00;99.90
44671;DHT22;48397;53.016;-2.260;2023-04-03T02:19:06;2.00;99.90
44671;DHT22;48397;53.016;-2.260;2023-04-03T02:21:34;2.00;99.90
44671;DHT22;48397;53.016;-2.260;2023-04-03T02:24:02;2.00;99.90
44671;DHT22;48397;53.016;-2.260;2023-04-03T02:26:29;2.00;99.90
44671;DHT22;48397;53.016;-2.260;2023-04-03T02:28:57;2.00;99.90
44671;DHT22;48397;53.016;-2.260;2023-04-03T02:31:25;2.00;99.90
44671;DHT22;48397;53.016;-2.260;2023-04-03T02:33:53;3.90;99.90
44671;DHT22;48397;53.016;-2.260;2023-04-03T02:36:21;1.90;99.90
44671;DHT22;48397;53.016;-2.260;2023-04-03T02:38:54;1.90;99.90
44671;DHT22;48397;53.016;-2.260;2023-04-03T02:43:51;1.80;99.90
44671;DHT22;48397;53.016;-2.260;2023-04-03T02:46:18;2.30;99.90
44671;DHT22;48397;53.016;-2.260;2023-04-03T02:48:46;1.70;99.90
44671;DHT22;48397;53.016;-2.260;2023-04-03T02:51:14;1.80;99.90
44671;DHT22;48397;53.016;-2.260;2023-04-03T02:53:42;1.70;99.90
44671;DHT22;48397;53.016;-2.260;2023-04-03T02:56:15;1.80;99.90
44671;DHT22;48397;53.016;-2.260;2023-04-03T02:58:44;1.70;99.90
44671;DHT22;48397;53.016;-2.260;2023-04-03T03:01:13;1.70;99.90
44671;DHT22;48397;53.016;-2.260;2023-04-03T03:03:41;1.70;99.90
44671;DHT22;48397;53.016;-2.260;2023-04-03T03:06:11;1.60;99.90
44671;DHT22;48397;53.016;-2.260;2023-04-03T03:08:40;1.30;99.90
44671;DHT22;48397;53.016;-2.260;2023-04-03T03:11:09;1.60;99.90
44671;DHT22;48397;53.016;-2.260;2023-04-03T03:13:37;1.50;99.90
44671;DHT22;48397;53.016;-2.260;2023-04-03T03:16:05;1.50;99.90
44671;DHT22;48397;53.016;-2.260;2023-04-03T03:18:33;1.50;99.90
44671;DHT22;48397;53.016;-2.260;2023-04-03T03:21:03;1.50;99.90
44671;DHT22;48397;53.016;-2.260;2023-04-03T03:23:32;1.50;99.90
44671;DHT22;48397;53.016;-2.260;2023-04-03T03:26:07;1.40;99.90
44671;DHT22;48397;53.016;-2.260;2023-04-03T03:28:37;1.30;99.90
44671;DHT22;48397;53.016;-2.260;2023-04-03T03:31:07;1.30;99.90
44671;DHT22;48397;53.016;-2.260;2023-04-03T03:33:37;1.20;99.90
44671;DHT22;48397;53.016;-2.260;2023-04-03T03:36:05;1.30;99.90
44671;DHT22;48397;53.016;-2.260;2023-04-03T03:38:33;1.20;99.90
44671;DHT22;48397;53.016;-2.260;2023-04-03T03:41:01;1.10;99.90
44671;DHT22;48397;53.016;-2.260;2023-04-03T03:43:32;1.10;99.90
44671;DHT22;48397;53.016;-2.260;2023-04-03T03:46:00;3.60;99.90
44671;DHT22;48397;53.016;-2.260;2023-04-03T03:48:28;1.10;99.90
44671;DHT22;48397;53.016;-2.260;2023-04-03T03:50:56;1.00;99.90
44671;DHT22;48397;53.016;-2.260;2023-04-03T03:53:29;5.30;99.90
44671;DHT22;48397;53.016;-2.260;2023-04-03T03:56:02;1.10;99.90
44671;DHT22;48397;53.016;-2.260;2023-04-03T03:58:32;1.10;99.90
44671;DHT22;48397;53.016;-2.260;2023-04-03T04:01:04;1.10;99.90
44671;DHT22;48397;53.016;-2.260;2023-04-03T04:03:37;1.10;99.90
44671;DHT22;48397;53.016;-2.260;2023-04-03T04:06:07;1.10;99.90
44671;DHT22;48397;53.016;-2.260;2023-04-03T04:08:36;1.10;99.90
44671;DHT22;48397;53.016;-2.260;2023-04-03T04:11:06;1.00;99.90
44671;DHT22;48397;53.016;-2.260;2023-04-03T04:13:34;1.10;99.90
44671;DHT22;48397;53.016;-2.260;2023-04-03T04:16:03;1.20;99.90
44671;DHT22;48397;53.016;-2.260;2023-04-03T04:18:33;1.20;99.90
44671;DHT22;48397;53.016;-2.260;2023-04-03T04:21:00;1.20;99.90
44671;DHT22;48397;53.016;-2.260;2023-04-03T04:23:29;1.20;99.90
44671;DHT22;48397;53.016;-2.260;2023-04-03T04:25:58;1.10;99.90
44671;DHT22;48397;53.016;-2.260;2023-04-03T04:28:29;1.10;99.90
44671;DHT22;48397;53.016;-2.260;2023-04-03T04:30:59;1.10;99.90
44671;DHT22;48397;53.016;-2.260;2023-04-03T04:33:28;1.20;99.90
44671;DHT22;48397;53.016;-2.260;2023-04-03T04:35:58;1.10;99.90
44671;DHT22;48397;53.016;-2.260;2023-04-03T04:38:26;1.10;99.90
44671;DHT22;48397;53.016;-2.260;2023-04-03T04:40:55;1.00;99.90
44671;DHT22;48397;53.016;-2.260;2023-04-03T04:43:23;1.00;99.90
44671;DHT22;48397;53.016;-2.260;2023-04-03T04:46:20;1.10;99.90
44671;DHT22;48397;53.016;-2.260;2023-04-03T04:48:53;1.30;99.90
44671;DHT22;48397;53.016;-2.260;2023-04-03T04:53:50;1.20;99.90
44671;DHT22;48397;53.016;-2.260;2023-04-03T04:56:21;1.10;99.90
44671;DHT22;48397;53.016;-2.260;2023-04-03T04:58:50;1.10;99.90
44671;DHT22;48397;53.016;-2.260;2023-04-03T05:01:20;1.10;99.90
44671;DHT22;48397;53.016;-2.260;2023-04-03T05:03:55;1.00;99.90
44671;DHT22;48397;53.016;-2.260;2023-04-03T05:06:24;1.00;99.90
44671;DHT22;48397;53.016;-2.260;2023-04-03T05:08:54;0.90;99.90
44671;DHT22;48397;53.016;-2.260;2023-04-03T05:11:23;0.90;99.90
44671;DHT22;48397;53.016;-2.260;2023-04-03T05:13:52;0.90;99.90
44671;DHT22;48397;53.016;-2.260;2023-04-03T05:16:22;0.80;99.90
44671;DHT22;48397;53.016;-2.260;2023-04-03T05:18:51;0.80;99.90
44671;DHT22;48397;53.016;-2.260;2023-04-03T05:21:22;0.50;99.90
44671;DHT22;48397;53.016;-2.260;2023-04-03T05:23:53;0.60;99.90
44671;DHT22;48397;53.016;-2.260;2023-04-03T05:26:27;0.60;99.90
44671;DHT22;48397;53.016;-2.260;2023-04-03T05:28:56;0.60;99.90
44671;DHT22;48397;53.016;-2.260;2023-04-03T05:31:25;0.50;99.90
44671;DHT22;48397;53.016;-2.260;2023-04-03T05:33:58;0.60;99.90
44671;DHT22;48397;53.016;-2.260;2023-04-03T05:36:30;0.50;99.90
44671;DHT22;48397;53.016;-2.260;2023-04-03T05:39:03;0.50;99.90
44671;DHT22;48397;53.016;-2.260;2023-04-03T05:41:37;0.50;99.90
44671;DHT22;48397;53.016;-2.260;2023-04-03T05:44:05;0.40;99.90
44671;DHT22;48397;53.016;-2.260;2023-04-03T05:46:33;0.40;99.90
44671;DHT22;48397;53.016;-2.260;2023-04-03T05:49:05;0.50;99.90
44671;DHT22;48397;53.016;-2.260;2023-04-03T05:51:36;0.50;99.90
44671;DHT22;48397;53.016;-2.260;2023-04-03T05:54:27;0.50;99.90
44671;DHT22;48397;53.016;-2.260;2023-04-03T05:57:08;0.50;99.90
44671;DHT22;48397;53.016;-2.260;2023-04-03T05:59:37;0.40;99.90
44671;DHT22;48397;53.016;-2.260;2023-04-03T06:02:05;0.40;99.90
44671;DHT22;48397;53.016;-2.260;2023-04-03T06:04:34;1.80;99.90
44671;DHT22;48397;53.016;-2.260;2023-04-03T06:07:02;0.40;99.90
44671;DHT22;48397;53.016;-2.260;2023-04-03T06:09:30;0.40;99.90
44671;DHT22;48397;53.016;-2.260;2023-04-03T06:11:59;0.40;99.90
44671;DHT22;48397;53.016;-2.260;2023-04-03T06:14:28;0.40;99.90
44671;DHT22;48397;53.016;-2.260;2023-04-03T06:16:56;0.40;99.90
44671;DHT22;48397;53.016;-2.260;2023-04-03T06:19:25;0.40;99.90
44671;DHT22;48397;53.016;-2.260;2023-04-03T06:21:56;0.40;99.90
44671;DHT22;48397;53.016;-2.260;2023-04-03T06:24:24;1.40;99.90
44671;DHT22;48397;53.016;-2.260;2023-04-03T06:26:52;1.00;99.90
44671;DHT22;48397;53.016;-2.260;2023-04-03T06:29:20;0.10;99.90
44671;DHT22;48397;53.016;-2.260;2023-04-03T06:31:48;0.60;99.90
44671;DHT22;48397;53.016;-2.260;2023-04-03T06:34:17;0.80;99.90
44671;DHT22;48397;53.016;-2.260;2023-04-03T06:36:47;0.90;99.90
44671;DHT22;48397;53.016;-2.260;2023-04-03T06:39:19;0.90;99.90
44671;DHT22;48397;53.016;-2.260;2023-04-03T06:41:52;1.00;99.90
44671;DHT22;48397;53.016;-2.260;2023-04-03T06:44:29;1.10;99.90
44671;DHT22;48397;53.016;-2.260;2023-04-03T06:46:57;1.10;99.90
44671;DHT22;48397;53.016;-2.260;2023-04-03T06:49:25;1.40;99.90
44671;DHT22;48397;53.016;-2.260;2023-04-03T06:51:52;1.30;99.90
44671;DHT22;48397;53.016;-2.260;2023-04-03T06:54:21;1.40;99.90
44671;DHT22;48397;53.016;-2.260;2023-04-03T06:56:49;1.60;99.90
44671;DHT22;48397;53.016;-2.260;2023-04-03T06:59:17;1.70;99.90
44671;DHT22;48397;53.016;-2.260;2023-04-03T07:01:45;1.70;99.90
44671;DHT22;48397;53.016;-2.260;2023-04-03T07:04:13;1.90;99.90
44671;DHT22;48397;53.016;-2.260;2023-04-03T07:06:42;2.00;99.90
44671;DHT22;48397;53.016;-2.260;2023-04-03T07:09:11;2.10;99.90
44671;DHT22;48397;53.016;-2.260;2023-04-03T07:11:39;2.20;99.90
44671;DHT22;48397;53.016;-2.260;2023-04-03T07:14:06;2.20;99.90
44671;DHT22;48397;53.016;-2.260;2023-04-03T07:16:35;1.80;99.90
44671;DHT22;48397;53.016;-2.260;2023-04-03T07:19:05;2.60;99.90
44671;DHT22;48397;53.016;-2.260;2023-04-03T07:21:33;2.70;99.90
44671;DHT22;48397;53.016;-2.260;2023-04-03T07:24:02;2.80;99.90
44671;DHT22;48397;53.016;-2.260;2023-04-03T07:26:30;2.80;99.90
44671;DHT22;48397;53.016;-2.260;2023-04-03T07:28:58;2.90;99.90
44671;DHT22;48397;53.016;-2.260;2023-04-03T07:31:30;1.30;99.90
44671;DHT22;48397;53.016;-2.260;2023-04-03T07:33:58;5.60;99.90
44671;DHT22;48397;53.016;-2.260;2023-04-03T07:36:25;3.00;99.90
44671;DHT22;48397;53.016;-2.260;2023-04-03T07:38:53;3.10;99.90
44671;DHT22;48397;53.016;-2.260;2023-04-03T07:41:21;3.20;99.90
44671;DHT22;48397;53.016;-2.260;2023-04-03T07:43:50;3.20;99.90
44671;DHT22;48397;53.016;-2.260;2023-04-03T07:46:18;3.30;99.90
44671;DHT22;48397;53.016;-2.260;2023-04-03T07:48:46;3.40;99.90
44671;DHT22;48397;53.016;-2.260;2023-04-03T07:51:14;2.30;99.90
44671;DHT22;48397;53.016;-2.260;2023-04-03T07:53:42;3.70;99.90
44671;DHT22;48397;53.016;-2.260;2023-04-03T07:56:11;3.70;99.90
44671;DHT22;48397;53.016;-2.260;2023-04-03T07:58:40;4.20;99.90
44671;DHT22;48397;53.016;-2.260;2023-04-03T08:01:09;3.90;99.90
44671;DHT22;48397;53.016;-2.260;2023-04-03T08:03:38;4.20;99.90
44671;DHT22;48397;53.016;-2.260;2023-04-03T08:06:08;4.20;99.90
44671;DHT22;48397;53.016;-2.260;2023-04-03T08:08:42;4.30;99.90
44671;DHT22;48397;53.016;-2.260;2023-04-03T08:11:11;4.60;99.90
44671;DHT22;48397;53.016;-2.260;2023-04-03T08:13:39;4.70;99.90
44671;DHT22;48397;53.016;-2.260;2023-04-03T08:16:14;4.70;99.90
44671;DHT22;48397;53.016;-2.260;2023-04-03T08:18:44;4.90;99.90
44671;DHT22;48397;53.016;-2.260;2023-04-03T08:21:12;5.00;99.90
44671;DHT22;48397;53.016;-2.260;2023-04-03T08:23:40;5.10;99.90
44671;DHT22;48397;53.016;-2.260;2023-04-03T08:26:13;5.10;99.90
44671;DHT22;48397;53.016;-2.260;2023-04-03T08:28:41;5.30;99.90
44671;DHT22;48397;53.016;-2.260;2023-04-03T08:31:15;5.40;99.90
44671;DHT22;48397;53.016;-2.260;2023-04-03T08:33:45;5.40;99.90
44671;DHT22;48397;53.016;-2.260;2023-04-03T08:36:22;5.60;99.90
44671;DHT22;48397;53.016;-2.260;2023-04-03T08:38:52;5.70;99.90
44671;DHT22;48397;53.016;-2.260;2023-04-03T08:41:31;5.80;99.90
44671;DHT22;48397;53.016;-2.260;2023-04-03T08:49:37;6.00;99.90
44671;DHT22;48397;53.016;-2.260;2023-04-03T08:52:14;6.10;99.90
44671;DHT22;48397;53.016;-2.260;2023-04-03T08:54:55;6.10;99.90
44671;DHT22;48397;53.016;-2.260;2023-04-03T08:57:44;5.70;99.90
44671;DHT22;48397;53.016;-2.260;2023-04-03T09:02:49;6.40;99.90
44671;DHT22;48397;53.016;-2.260;2023-04-03T09:05:31;6.30;99.90
44671;DHT22;48397;53.016;-2.260;2023-04-03T09:25:10;7.00;99.90
44671;DHT22;48397;53.016;-2.260;2023-04-03T09:27:39;7.10;99.90
44671;DHT22;48397;53.016;-2.260;2023-04-03T09:30:24;7.00;99.90
44671;DHT22;48397;53.016;-2.260;2023-04-03T09:32:55;7.20;99.90
44671;DHT22;48397;53.016;-2.260;2023-04-03T09:35:31;7.20;99.90
44671;DHT22;48397;53.016;-2.260;2023-04-03T09:38:21;7.40;99.90
44671;DHT22;48397;53.016;-2.260;2023-04-03T09:41:03;7.40;99.90
44671;DHT22;48397;53.016;-2.260;2023-04-03T09:43:34;7.40;99.90
44671;DHT22;48397;53.016;-2.260;2023-04-03T09:46:33;7.50;99.90
44671;DHT22;48397;53.016;-2.260;2023-04-03T09:49:04;7.50;99.90
44671;DHT22;48397;53.016;-2.260;2023-04-03T09:51:36;7.60;99.90
44671;DHT22;48397;53.016;-2.260;2023-04-03T09:54:40;7.70;99.90
44671;DHT22;48397;53.016;-2.260;2023-04-03T09:57:12;7.80;99.90
44671;DHT22;48397;53.016;-2.260;2023-04-03T10:02:37;7.90;99.90
44671;DHT22;48397;53.016;-2.260;2023-04-03T10:05:42;8.00;99.90
44671;DHT22;48397;53.016;-2.260;2023-04-03T10:08:20;8.00;99.90
44671;DHT22;48397;53.016;-2.260;2023-04-03T10:11:17;8.00;99.90
44671;DHT22;48397;53.016;-2.260;2023-04-03T10:13:57;8.00;99.90
44671;DHT22;48397;53.016;-2.260;2023-04-03T10:16:28;8.00;99.90
44671;DHT22;48397;53.016;-2.260;2023-04-03T10:21:58;8.10;99.90
44671;DHT22;48397;53.016;-2.260;2023-04-03T10:24:38;8.20;99.90
44671;DHT22;48397;53.016;-2.260;2023-04-03T10:27:12;8.30;99.90
44671;DHT22;48397;53.016;-2.260;2023-04-03T10:41:32;8.70;99.90
44671;DHT22;48397;53.016;-2.260;2023-04-03T10:44:12;9.70;99.90
44671;DHT22;48397;53.016;-2.260;2023-04-03T10:58:32;9.00;99.90
44671;DHT22;48397;53.016;-2.260;2023-04-03T11:01:07;9.10;99.90
44671;DHT22;48397;53.016;-2.260;2023-04-03T11:03:39;9.20;99.90
44671;DHT22;48397;53.016;-2.260;2023-04-03T11:06:11;9.10;99.90
44671;DHT22;48397;53.016;-2.260;2023-04-03T11:08:51;9.20;99.90
44671;DHT22;48397;53.016;-2.260;2023-04-03T11:11:27;9.30;99.90
44671;DHT22;48397;53.016;-2.260;2023-04-03T11:14:17;9.30;99.90
44671;DHT22;48397;53.016;-2.260;2023-04-03T11:17:05;9.30;99.90
44671;DHT22;48397;53.016;-2.260;2023-04-03T11:20:02;9.30;99.90
44671;DHT22;48397;53.016;-2.260;2023-04-03T11:22:37;9.40;99.90
44671;DHT22;48397;53.016;-2.260;2023-04-03T11:28:01;9.80;99.90
44671;DHT22;48397;53.016;-2.260;2023-04-03T11:35:57;10.10;99.90
44671;DHT22;48397;53.016;-2.260;2023-04-03T11:38:38;10.00;99.90
44671;DHT22;48397;53.016;-2.260;2023-04-03T11:41:10;10.00;99.90
44671;DHT22;48397;53.016;-2.260;2023-04-03T11:44:06;9.80;99.90
44671;DHT22;48397;53.016;-2.260;2023-04-03T11:46:52;9.80;99.90
44671;DHT22;48397;53.016;-2.260;2023-04-03T11:49:56;9.90;99.90
44671;DHT22;48397;53.016;-2.260;2023-04-03T12:16:23;11.60;99.90
44671;DHT22;48397;53.016;-2.260;2023-04-03T12:24:02;11.70;99.90
44671;DHT22;48397;53.016;-2.260;2023-04-03T12:29:25;11.70;99.90
44671;DHT22;48397;53.016;-2.260;2023-04-03T12:35:16;11.90;99.90
44671;DHT22;48397;53.016;-2.260;2023-04-03T12:43:42;12.10;99.90
44671;DHT22;48397;53.016;-2.260;2023-04-03T12:46:14;12.30;99.90
44671;DHT22;48397;53.016;-2.260;2023-04-03T12:48:57;12.60;99.90
44671;DHT22;48397;53.016;-2.260;2023-04-03T12:51:40;13.30;99.90
44671;DHT22;48397;53.016;-2.260;2023-04-03T12:56:52;13.80;99.90
44671;DHT22;48397;53.016;-2.260;2023-04-03T12:59:24;13.80;99.90
44671;DHT22;48397;53.016;-2.260;2023-04-03T13:01:57;14.10;99.90
44671;DHT22;48397;53.016;-2.260;2023-04-03T13:04:28;14.40;99.90
44671;DHT22;48397;53.016;-2.260;2023-04-03T13:06:57;14.50;99.90
44671;DHT22;48397;53.016;-2.260;2023-04-03T13:09:29;14.60;99.90
44671;DHT22;48397;53.016;-2.260;2023-04-03T13:12:07;14.50;99.90
44671;DHT22;48397;53.016;-2.260;2023-04-03T13:14:38;14.60;99.90
44671;DHT22;48397;53.016;-2.260;2023-04-03T13:17:13;14.80;99.90
44671;DHT22;48397;53.016;-2.260;2023-04-03T13:19:42;14.80;99.90
44671;DHT22;48397;53.016;-2.260;2023-04-03T13:22:36;15.00;99.90
44671;DHT22;48397;53.016;-2.260;2023-04-03T13:25:13;15.10;99.90
44671;DHT22;48397;53.016;-2.260;2023-04-03T13:27:42;15.20;99.90
44671;DHT22;48397;53.016;-2.260;2023-04-03T13:30:30;15.30;99.90
44671;DHT22;48397;53.016;-2.260;2023-04-03T13:33:01;15.30;99.90
44671;DHT22;48397;53.016;-2.260;2023-04-03T13:35:39;15.50;99.90
44671;DHT22;48397;53.016;-2.260;2023-04-03T13:40:57;15.90;99.90
44671;DHT22;48397;53.016;-2.260;2023-04-03T13:43:30;16.10;99.90
44671;DHT22;48397;53.016;-2.260;2023-04-03T13:48:44;16.60;99.90
44671;DHT22;48397;53.016;-2.260;2023-04-03T13:51:17;16.60;99.90
44671;DHT22;48397;53.016;-2.260;2023-04-03T13:53:59;16.70;99.90
44671;DHT22;48397;53.016;-2.260;2023-04-03T13:56:34;17.10;99.90
44671;DHT22;48397;53.016;-2.260;2023-04-03T14:04:26;17.60;99.90
44671;DHT22;48397;53.016;-2.260;2023-04-03T14:06:59;17.00;98.80
44671;DHT22;48397;53.016;-2.260;2023-04-03T14:09:28;18.00;98.20
44671;DHT22;48397;53.016;-2.260;2023-04-03T14:12:02;18.20;97.70
44671;DHT22;48397;53.016;-2.260;2023-04-03T14:14:36;18.30;95.90
44671;DHT22;48397;53.016;-2.260;2023-04-03T14:17:20;18.50;96.40
44671;DHT22;48397;53.016;-2.260;2023-04-03T14:19:55;19.10;94.40
44671;DHT22;48397;53.016;-2.260;2023-04-03T14:22:25;19.00;94.50
44671;DHT22;48397;53.016;-2.260;2023-04-03T14:24:53;19.10;92.30
44671;DHT22;48397;53.016;-2.260;2023-04-03T14:27:34;19.10;92.50
44671;DHT22;48397;53.016;-2.260;2023-04-03T14:30:04;18.90;92.70
44671;DHT22;48397;53.016;-2.260;2023-04-03T14:32:33;19.10;92.00
44671;DHT22;48397;53.016;-2.260;2023-04-03T14:35:01;19.10;92.10
44671;DHT22;48397;53.016;-2.260;2023-04-03T14:37:34;19.30;91.40
44671;DHT22;48397;53.016;-2.260;2023-04-03T14:40:04;19.30;91.60
44671;DHT22;48397;53.016;-2.260;2023-04-03T14:42:35;19.50;91.50
44671;DHT22;48397;53.016;-2.260;2023-04-03T14:45:10;19.80;91.30
44671;DHT22;48397;53.016;-2.260;2023-04-03T14:47:48;20.10;89.90
44671;DHT22;48397;53.016;-2.260;2023-04-03T14:50:26;20.00;84.70
44671;DHT22;48397;53.016;-2.260;2023-04-03T14:52:57;19.60;83.40
44671;DHT22;48397;53.016;-2.260;2023-04-03T14:55:27;19.40;82.70
44671;DHT22;48397;53.016;-2.260;2023-04-03T14:57:55;19.50;83.40
44671;DHT22;48397;53.016;-2.260;2023-04-03T15:00:24;19.70;81.90
44671;DHT22;48397;53.016;-2.260;2023-04-03T15:02:53;19.80;82.30
44671;DHT22;48397;53.016;-2.260;2023-04-03T15:05:21;20.30;81.60
44671;DHT22;48397;53.016;-2.260;2023-04-03T15:07:49;20.30;82.00
44671;DHT22;48397;53.016;-2.260;2023-04-03T15:10:30;20.30;79.80
44671;DHT22;48397;53.016;-2.260;2023-04-03T15:12:58;20.50;81.40
44671;DHT22;48397;53.016;-2.260;2023-04-03T15:15:28;20.60;81.90
44671;DHT22;48397;53.016;-2.260;2023-04-03T15:17:57;21.00;82.20
44671;DHT22;48397;53.016;-2.260;2023-04-03T15:20:27;21.50;78.50
44671;DHT22;48397;53.016;-2.260;2023-04-03T15:22:55;21.40;76.20
44671;DHT22;48397;53.016;-2.260;2023-04-03T15:25:24;21.20;76.50
44671;DHT22;48397;53.016;-2.260;2023-04-03T15:27:54;21.20;77.60
44671;DHT22;48397;53.016;-2.260;2023-04-03T15:30:25;21.50;76.80
44671;DHT22;48397;53.016;-2.260;2023-04-03T15:32:54;21.80;77.30
44671;DHT22;48397;53.016;-2.260;2023-04-03T15:35:22;22.20;75.40
44671;DHT22;48397;53.016;-2.260;2023-04-03T15:37:51;22.30;75.80
44671;DHT22;48397;53.016;-2.260;2023-04-03T15:40:19;22.50;74.20
44671;DHT22;48397;53.016;-2.260;2023-04-03T15:42:47;22.50;74.20
44671;DHT22;48397;53.016;-2.260;2023-04-03T15:45:16;22.70;74.00
44671;DHT22;48397;53.016;-2.260;2023-04-03T15:47:45;23.00;73.30
44671;DHT22;48397;53.016;-2.260;2023-04-03T15:50:13;23.00;73.50
44671;DHT22;48397;53.016;-2.260;2023-04-03T15:52:40;23.10;71.10
44671;DHT22;48397;53.016;-2.260;2023-04-03T15:55:08;22.80;70.00
44671;DHT22;48397;53.016;-2.260;2023-04-03T15:57:36;22.70;70.10
44671;DHT22;48397;53.016;-2.260;2023-04-03T16:00:07;22.60;70.90
44671;DHT22;48397;53.016;-2.260;2023-04-03T16:02:35;22.90;71.30
44671;DHT22;48397;53.016;-2.260;2023-04-03T16:05:03;23.20;71.60
44671;DHT22;48397;53.016;-2.260;2023-04-03T16:07:31;23.50;70.50
44671;DHT22;48397;53.016;-2.260;2023-04-03T16:09:58;23.40;69.30
44671;DHT22;48397;53.016;-2.260;2023-04-03T16:12:26;23.40;69.60
44671;DHT22;48397;53.016;-2.260;2023-04-03T16:14:54;23.40;69.50
44671;DHT22;48397;53.016;-2.260;2023-04-03T16:17:22;23.50;69.10
44671;DHT22;48397;53.016;-2.260;2023-04-03T16:19:50;23.60;68.70
44671;DHT22;48397;53.016;-2.260;2023-04-03T16:22:17;23.60;67.50
44671;DHT22;48397;53.016;-2.260;2023-04-03T16:24:45;23.30;66.60
44671;DHT22;48397;53.016;-2.260;2023-04-03T16:27:13;22.90;66.60
44671;DHT22;48397;53.016;-2.260;2023-04-03T16:29:40;23.80;67.90
44671;DHT22;48397;53.016;-2.260;2023-04-03T16:32:09;22.80;67.80
44671;DHT22;48397;53.016;-2.260;2023-04-03T16:34:37;22.90;67.70
44671;DHT22;48397;53.016;-2.260;2023-04-03T16:37:04;23.10;67.10
44671;DHT22;48397;53.016;-2.260;2023-04-03T16:39:32;23.20;65.20
44671;DHT22;48397;53.016;-2.260;2023-04-03T16:42:00;22.90;65.70
44671;DHT22;48397;53.016;-2.260;2023-04-03T16:44:28;22.90;66.30
44671;DHT22;48397;53.016;-2.260;2023-04-03T16:46:55;23.00;65.70
44671;DHT22;48397;53.016;-2.260;2023-04-03T16:49:24;23.00;65.80
44671;DHT22;48397;53.016;-2.260;2023-04-03T16:51:52;23.00;65.50
44671;DHT22;48397;53.016;-2.260;2023-04-03T16:54:20;22.90;64.40
44671;DHT22;48397;53.016;-2.260;2023-04-03T16:56:49;22.50;64.30
44671;DHT22;48397;53.016;-2.260;2023-04-03T16:59:17;22.20;65.20
44671;DHT22;48397;53.016;-2.260;2023-04-03T17:01:44;22.20;66.10
44671;DHT22;48397;53.016;-2.260;2023-04-03T17:04:12;22.30;66.10
44671;DHT22;48397;53.016;-2.260;2023-04-03T17:06:40;22.50;66.20
44671;DHT22;48397;53.016;-2.260;2023-04-03T17:09:08;22.60;65.50
44671;DHT22;48397;53.016;-2.260;2023-04-03T17:11:37;22.70;65.80
44671;DHT22;48397;53.016;-2.260;2023-04-03T17:14:06;22.80;65.90
44671;DHT22;48397;53.016;-2.260;2023-04-03T17:16:34;22.70;65.20
44671;DHT22;48397;53.016;-2.260;2023-04-03T17:19:02;22.50;64.90
44671;DHT22;48397;53.016;-2.260;2023-04-03T17:21:32;22.00;64.80
44671;DHT22;48397;53.016;-2.260;2023-04-03T17:24:03;22.10;65.50
44671;DHT22;48397;53.016;-2.260;2023-04-03T17:26:36;21.90;65.00
44671;DHT22;48397;53.016;-2.260;2023-04-03T17:29:05;21.80;65.10
44671;DHT22;48397;53.016;-2.260;2023-04-03T17:31:36;21.80;64.90
44671;DHT22;48397;53.016;-2.260;2023-04-03T17:34:05;21.70;65.20
44671;DHT22;48397;53.016;-2.260;2023-04-03T17:36:35;21.60;65.00
44671;DHT22;48397;53.016;-2.260;2023-04-03T17:39:07;21.40;65.30
44671;DHT22;48397;53.016;-2.260;2023-04-03T17:41:35;21.30;65.90
44671;DHT22;48397;53.016;-2.260;2023-04-03T17:44:03;21.40;65.90
44671;DHT22;48397;53.016;-2.260;2023-04-03T17:49:01;21.50;65.70
44671;DHT22;48397;53.016;-2.260;2023-04-03T17:51:30;21.30;65.70
44671;DHT22;48397;53.016;-2.260;2023-04-03T17:54:01;20.60;65.40
44671;DHT22;48397;53.016;-2.260;2023-04-03T17:56:29;20.50;65.80
44671;DHT22;48397;53.016;-2.260;2023-04-03T17:58:58;20.20;66.10
44671;DHT22;48397;53.016;-2.260;2023-04-03T18:01:31;19.80;66.50
44671;DHT22;48397;53.016;-2.260;2023-04-03T18:04:02;19.70;66.60
44671;DHT22;48397;53.016;-2.260;2023-04-03T18:06:35;19.50;66.60